sensor_id;sensor_type;location;lat;lon;timestamp;pressure;altitude;pressure_sealevel;temperature;humidity
71126;BME280;58785;55.566;38.058;2022-08-19T00:01:43;100865.53;;;21.02;58.21
71126;BME280;58785;55.566;38.058;2022-08-19T00:04:11;100870.31;;;21.00;58.10
71126;BME280;58785;55.566;38.058;2022-08-19T00:06:38;100881.59;;;21.04;58.23
71126;BME280;58785;55.566;38.058;2022-08-19T00:09:06;100880.78;;;21.03;58.27
71126;BME280;58785;55.566;38.058;2022-08-19T00:11:33;100889.09;;;21.02;58.33
71126;BME280;58785;55.566;38.058;2022-08-19T00:14:04;100893.91;;;21.00;58.37
71126;BME280;58785;55.566;38.058;2022-08-19T00:16:30;100894.09;;;20.98;58.15
71126;BME280;58785;55.566;38.058;2022-08-19T00:18:55;100893.25;;;20.98;58.34
71126;BME280;58785;55.566;38.058;2022-08-19T00:21:25;100893.25;;;20.98;58.24
71126;BME280;58785;55.566;38.058;2022-08-19T00:23:52;100880.47;;;20.91;58.01
71126;BME280;58785;55.566;38.058;2022-08-19T00:26:19;100886.16;;;20.97;57.90
71126;BME280;58785;55.566;38.058;2022-08-19T00:28:44;100891.59;;;20.97;57.95
71126;BME280;58785;55.566;38.058;2022-08-19T00:31:11;100893.00;;;20.92;57.97
71126;BME280;58785;55.566;38.058;2022-08-19T00:33:37;100898.63;;;20.91;57.93
71126;BME280;58785;55.566;38.058;2022-08-19T00:36:05;100903.41;;;20.89;57.94
71126;BME280;58785;55.566;38.058;2022-08-19T00:38:32;100911.94;;;20.86;58.00
71126;BME280;58785;55.566;38.058;2022-08-19T00:40:58;100919.59;;;20.82;58.15
71126;BME280;58785;55.566;38.058;2022-08-19T00:43:25;100920.84;;;20.80;58.12
71126;BME280;58785;55.566;38.058;2022-08-19T00:45:51;100925.63;;;20.78;58.17
71126;BME280;58785;55.566;38.058;2022-08-19T00:48:18;100936.06;;;20.81;58.00
71126;BME280;58785;55.566;38.058;2022-08-19T00:50:46;100915.19;;;20.75;58.09
71126;BME280;58785;55.566;38.058;2022-08-19T00:53:15;100925.81;;;20.76;58.03
71126;BME280;58785;55.566;38.058;2022-08-19T00:55:46;100922.44;;;20.74;58.06
71126;BME280;58785;55.566;38.058;2022-08-19T00:58:16;100931.25;;;20.76;57.82
71126;BME280;58785;55.566;38.058;2022-08-19T01:00:43;100928.06;;;20.73;57.74
71126;BME280;58785;55.566;38.058;2022-08-19T01:03:12;100929.72;;;20.74;57.77
71126;BME280;58785;55.566;38.058;2022-08-19T01:05:39;100917.81;;;20.68;57.83
71126;BME280;58785;55.566;38.058;2022-08-19T01:08:07;100925.75;;;20.70;57.90
71126;BME280;58785;55.566;38.058;2022-08-19T01:10:40;100917.38;;;20.64;57.71
71126;BME280;58785;55.566;38.058;2022-08-19T01:13:06;100920.09;;;20.64;57.60
71126;BME280;58785;55.566;38.058;2022-08-19T01:15:35;100921.75;;;20.65;57.52
71126;BME280;58785;55.566;38.058;2022-08-19T01:18:08;100923.78;;;20.63;57.35
71126;BME280;58785;55.566;38.058;2022-08-19T01:20:35;100935.31;;;20.65;57.46
71126;BME280;58785;55.566;38.058;2022-08-19T01:23:02;100912.91;;;20.57;57.31
71126;BME280;58785;55.566;38.058;2022-08-19T01:25:32;100916.91;;;20.61;57.41
71126;BME280;58785;55.566;38.058;2022-08-19T01:27:58;100911.28;;;20.62;57.28
71126;BME280;58785;55.566;38.058;2022-08-19T01:30:31;100912.72;;;20.58;57.27
71126;BME280;58785;55.566;38.058;2022-08-19T01:32:57;100916.47;;;20.57;57.29
71126;BME280;58785;55.566;38.058;2022-08-19T01:35:26;100919.38;;;20.56;57.50
71126;BME280;58785;55.566;38.058;2022-08-19T01:37:59;100940.75;;;20.51;57.80
71126;BME280;58785;55.566;38.058;2022-08-19T01:40:31;100942.84;;;20.49;57.83
71126;BME280;58785;55.566;38.058;2022-08-19T01:42:58;100937.31;;;20.42;57.82
71126;BME280;58785;55.566;38.058;2022-08-19T01:45:27;100946.47;;;20.41;58.02
71126;BME280;58785;55.566;38.058;2022-08-19T01:47:54;100929.47;;;20.32;57.87
71126;BME280;58785;55.566;38.058;2022-08-19T01:50:20;100937.88;;;20.37;57.69
71126;BME280;58785;55.566;38.058;2022-08-19T01:52:46;100932.00;;;20.34;57.91
71126;BME280;58785;55.566;38.058;2022-08-19T01:55:19;100932.00;;;20.34;57.93
71126;BME280;58785;55.566;38.058;2022-08-19T01:57:50;100931.81;;;20.35;57.72
71126;BME280;58785;55.566;38.058;2022-08-19T02:00:20;100922.66;;;20.36;57.61
71126;BME280;58785;55.566;38.058;2022-08-19T02:02:46;100926.66;;;20.41;57.69
71126;BME280;58785;55.566;38.058;2022-08-19T02:05:12;100917.06;;;20.38;57.70
71126;BME280;58785;55.566;38.058;2022-08-19T02:07:39;100919.97;;;20.36;57.75
71126;BME280;58785;55.566;38.058;2022-08-19T02:10:09;100926.41;;;20.35;57.58
71126;BME280;58785;55.566;38.058;2022-08-19T02:12:35;100921.16;;;20.34;57.57
71126;BME280;58785;55.566;38.058;2022-08-19T02:15:02;100926.56;;;20.34;57.80
71126;BME280;58785;55.566;38.058;2022-08-19T02:17:31;100922.88;;;20.35;57.79
71126;BME280;58785;55.566;38.058;2022-08-19T02:19:57;100930.50;;;20.31;57.73
71126;BME280;58785;55.566;38.058;2022-08-19T02:22:24;100930.91;;;20.28;58.01
71126;BME280;58785;55.566;38.058;2022-08-19T02:24:53;100931.94;;;20.27;57.84
71126;BME280;58785;55.566;38.058;2022-08-19T02:27:20;100928.94;;;20.22;58.08
71126;BME280;58785;55.566;38.058;2022-08-19T02:29:47;100926.63;;;20.19;58.07
71126;BME280;58785;55.566;38.058;2022-08-19T02:32:12;100935.78;;;20.18;58.19
71126;BME280;58785;55.566;38.058;2022-08-19T02:34:39;100926.94;;;20.09;58.28
71126;BME280;58785;55.566;38.058;2022-08-19T02:37:04;100937.38;;;20.13;58.16
71126;BME280;58785;55.566;38.058;2022-08-19T02:39:30;100936.91;;;20.09;58.47
71126;BME280;58785;55.566;38.058;2022-08-19T02:41:58;100939.81;;;20.07;58.50
71126;BME280;58785;55.566;38.058;2022-08-19T02:44:24;100944.84;;;20.10;58.31
71126;BME280;58785;55.566;38.058;2022-08-19T02:46:50;100939.19;;;20.05;58.40
71126;BME280;58785;55.566;38.058;2022-08-19T02:49:16;100951.59;;;20.15;58.40
71126;BME280;58785;55.566;38.058;2022-08-19T02:51:43;100952.97;;;20.10;58.24
71126;BME280;58785;55.566;38.058;2022-08-19T02:54:11;100963.25;;;20.15;58.28
71126;BME280;58785;55.566;38.058;2022-08-19T02:56:39;100951.50;;;20.08;58.41
71126;BME280;58785;55.566;38.058;2022-08-19T02:59:06;100966.59;;;20.17;58.38
71126;BME280;58785;55.566;38.058;2022-08-19T03:01:35;100972.88;;;20.18;58.48
71126;BME280;58785;55.566;38.058;2022-08-19T03:04:04;100966.41;;;20.19;58.44
71126;BME280;58785;55.566;38.058;2022-08-19T03:06:30;100958.28;;;20.19;58.41
71126;BME280;58785;55.566;38.058;2022-08-19T03:08:57;100969.22;;;20.25;58.29
71126;BME280;58785;55.566;38.058;2022-08-19T03:11:26;100965.47;;;20.26;58.65
71126;BME280;58785;55.566;38.058;2022-08-19T03:13:52;100960.41;;;20.23;58.40
71126;BME280;58785;55.566;38.058;2022-08-19T03:16:22;100958.81;;;20.29;58.42
71126;BME280;58785;55.566;38.058;2022-08-19T03:18:49;100965.72;;;20.31;58.30
71126;BME280;58785;55.566;38.058;2022-08-19T03:21:17;100956.22;;;20.35;58.32
71126;BME280;58785;55.566;38.058;2022-08-19T03:23:43;100954.34;;;20.36;58.50
71126;BME280;58785;55.566;38.058;2022-08-19T03:26:09;100946.00;;;20.37;58.19
71126;BME280;58785;55.566;38.058;2022-08-19T03:28:34;100939.75;;;20.37;58.39
71126;BME280;58785;55.566;38.058;2022-08-19T03:31:06;100937.41;;;20.34;58.35
71126;BME280;58785;55.566;38.058;2022-08-19T03:33:36;100955.09;;;20.45;58.31
71126;BME280;58785;55.566;38.058;2022-08-19T03:36:07;100957.81;;;20.45;58.21
71126;BME280;58785;55.566;38.058;2022-08-19T03:38:36;100955.78;;;20.53;58.26
71126;BME280;58785;55.566;38.058;2022-08-19T03:41:07;100971.38;;;20.66;57.91
71126;BME280;58785;55.566;38.058;2022-08-19T03:43:36;100971.91;;;20.76;57.92
71126;BME280;58785;55.566;38.058;2022-08-19T03:46:13;100957.75;;;20.81;57.55
71126;BME280;58785;55.566;38.058;2022-08-19T03:48:40;100962.09;;;20.97;57.49
71126;BME280;58785;55.566;38.058;2022-08-19T03:51:07;100964.06;;;21.09;57.35
71126;BME280;58785;55.566;38.058;2022-08-19T03:53:34;100966.53;;;21.26;57.08
71126;BME280;58785;55.566;38.058;2022-08-19T03:56:01;100963.88;;;21.32;56.95
71126;BME280;58785;55.566;38.058;2022-08-19T03:58:28;100958.72;;;21.44;56.59
71126;BME280;58785;55.566;38.058;2022-08-19T04:00:56;100956.50;;;21.54;56.22
71126;BME280;58785;55.566;38.058;2022-08-19T04:03:23;100958.50;;;21.73;55.99
71126;BME280;58785;55.566;38.058;2022-08-19T04:05:48;100957.16;;;21.91;55.45
71126;BME280;58785;55.566;38.058;2022-08-19T04:08:15;100963.56;;;22.11;55.42
71126;BME280;58785;55.566;38.058;2022-08-19T04:10:44;100967.56;;;22.15;55.25
71126;BME280;58785;55.566;38.058;2022-08-19T04:13:09;100968.44;;;22.29;54.71
71126;BME280;58785;55.566;38.058;2022-08-19T04:15:40;100973.66;;;22.30;54.88
71126;BME280;58785;55.566;38.058;2022-08-19T04:18:08;100978.94;;;22.38;54.40
71126;BME280;58785;55.566;38.058;2022-08-19T04:20:46;100991.72;;;22.51;54.42
71126;BME280;58785;55.566;38.058;2022-08-19T04:23:13;100980.66;;;22.53;54.19
71126;BME280;58785;55.566;38.058;2022-08-19T04:25:41;100982.94;;;22.49;54.53
71126;BME280;58785;55.566;38.058;2022-08-19T04:28:08;100987.75;;;22.47;54.35
71126;BME280;58785;55.566;38.058;2022-08-19T04:30:43;100988.34;;;22.43;54.40
71126;BME280;58785;55.566;38.058;2022-08-19T04:33:10;100989.56;;;22.33;54.63
71126;BME280;58785;55.566;38.058;2022-08-19T04:35:40;100986.44;;;22.30;54.97
71126;BME280;58785;55.566;38.058;2022-08-19T04:38:08;100984.34;;;22.25;55.27
71126;BME280;58785;55.566;38.058;2022-08-19T04:40:39;100986.59;;;22.22;55.10
71126;BME280;58785;55.566;38.058;2022-08-19T04:43:23;100978.22;;;22.17;55.08
71126;BME280;58785;55.566;38.058;2022-08-19T04:45:48;100984.09;;;22.20;54.98
71126;BME280;58785;55.566;38.058;2022-08-19T04:48:15;100989.09;;;22.23;55.35
71126;BME280;58785;55.566;38.058;2022-08-19T04:50:42;100992.69;;;22.30;55.04
71126;BME280;58785;55.566;38.058;2022-08-19T04:53:09;100990.22;;;22.42;54.99
71126;BME280;58785;55.566;38.058;2022-08-19T04:55:39;100982.72;;;22.51;54.67
71126;BME280;58785;55.566;38.058;2022-08-19T04:58:04;100984.25;;;22.66;54.28
71126;BME280;58785;55.566;38.058;2022-08-19T05:00:30;100990.75;;;22.72;54.02
71126;BME280;58785;55.566;38.058;2022-08-19T05:02:55;100987.41;;;22.77;54.35
71126;BME280;58785;55.566;38.058;2022-08-19T05:05:21;100983.69;;;22.84;53.94
71126;BME280;58785;55.566;38.058;2022-08-19T05:07:47;100992.69;;;22.91;53.96
71126;BME280;58785;55.566;38.058;2022-08-19T05:10:12;100978.47;;;22.89;54.14
71126;BME280;58785;55.566;38.058;2022-08-19T05:12:38;100968.44;;;22.97;54.00
71126;BME280;58785;55.566;38.058;2022-08-19T05:15:05;100963.81;;;23.04;53.76
71126;BME280;58785;55.566;38.058;2022-08-19T05:17:31;100958.41;;;23.17;53.42
71126;BME280;58785;55.566;38.058;2022-08-19T05:19:57;100961.34;;;23.29;53.35
71126;BME280;58785;55.566;38.058;2022-08-19T05:22:43;100970.13;;;23.37;53.25
71126;BME280;58785;55.566;38.058;2022-08-19T05:25:14;100976.19;;;23.46;53.14
71126;BME280;58785;55.566;38.058;2022-08-19T05:27:41;100979.53;;;23.61;52.84
71126;BME280;58785;55.566;38.058;2022-08-19T05:30:08;100968.22;;;23.71;52.59
71126;BME280;58785;55.566;38.058;2022-08-19T05:32:34;100967.78;;;23.80;52.53
71126;BME280;58785;55.566;38.058;2022-08-19T05:34:59;100972.34;;;24.00;52.01
71126;BME280;58785;55.566;38.058;2022-08-19T05:37:25;100977.25;;;24.29;51.62
71126;BME280;58785;55.566;38.058;2022-08-19T05:39:53;100981.47;;;24.70;50.93
71126;BME280;58785;55.566;38.058;2022-08-19T05:42:20;100981.50;;;25.02;50.33
71126;BME280;58785;55.566;38.058;2022-08-19T05:44:47;100984.88;;;25.29;49.46
71126;BME280;58785;55.566;38.058;2022-08-19T05:47:16;100971.69;;;25.44;49.25
71126;BME280;58785;55.566;38.058;2022-08-19T05:49:42;100964.97;;;25.71;48.47
71126;BME280;58785;55.566;38.058;2022-08-19T05:52:11;100978.28;;;25.86;48.58
71126;BME280;58785;55.566;38.058;2022-08-19T05:54:39;100976.56;;;25.85;48.88
71126;BME280;58785;55.566;38.058;2022-08-19T05:57:11;100979.16;;;25.55;49.11
71126;BME280;58785;55.566;38.058;2022-08-19T05:59:37;100987.84;;;25.27;49.52
71126;BME280;58785;55.566;38.058;2022-08-19T06:02:04;100979.66;;;24.96;49.86
71126;BME280;58785;55.566;38.058;2022-08-19T06:04:31;100984.75;;;24.85;50.08
71126;BME280;58785;55.566;38.058;2022-08-19T06:06:57;100982.28;;;24.77;49.99
71126;BME280;58785;55.566;38.058;2022-08-19T06:09:23;100982.28;;;24.77;50.06
71126;BME280;58785;55.566;38.058;2022-08-19T06:11:52;100986.69;;;24.78;50.28
71126;BME280;58785;55.566;38.058;2022-08-19T06:14:23;100993.78;;;24.86;50.22
71126;BME280;58785;55.566;38.058;2022-08-19T06:16:49;100992.16;;;25.10;49.85
71126;BME280;58785;55.566;38.058;2022-08-19T06:19:19;100992.06;;;25.23;49.37
71126;BME280;58785;55.566;38.058;2022-08-19T06:21:46;100993.28;;;25.27;49.56
71126;BME280;58785;55.566;38.058;2022-08-19T06:24:16;101000.44;;;25.28;49.13
71126;BME280;58785;55.566;38.058;2022-08-19T06:26:43;100992.97;;;25.17;49.32
71126;BME280;58785;55.566;38.058;2022-08-19T06:29:12;100983.81;;;24.98;50.19
71126;BME280;58785;55.566;38.058;2022-08-19T06:31:42;100993.94;;;24.91;50.33
71126;BME280;58785;55.566;38.058;2022-08-19T06:34:08;100982.91;;;24.79;50.57
71126;BME280;58785;55.566;38.058;2022-08-19T06:36:38;100983.34;;;24.76;50.83
71126;BME280;58785;55.566;38.058;2022-08-19T06:39:09;100990.88;;;24.74;50.72
71126;BME280;58785;55.566;38.058;2022-08-19T06:41:38;100989.44;;;24.72;50.84
71126;BME280;58785;55.566;38.058;2022-08-19T06:44:05;100982.34;;;24.64;50.98
71126;BME280;58785;55.566;38.058;2022-08-19T06:46:31;101001.63;;;24.69;50.69
71126;BME280;58785;55.566;38.058;2022-08-19T06:48:57;100991.19;;;24.59;50.82
71126;BME280;58785;55.566;38.058;2022-08-19T06:51:23;100988.72;;;24.51;50.90
71126;BME280;58785;55.566;38.058;2022-08-19T06:53:52;100986.22;;;24.50;51.17
71126;BME280;58785;55.566;38.058;2022-08-19T06:56:24;101003.63;;;24.49;51.12
71126;BME280;58785;55.566;38.058;2022-08-19T06:58:51;100985.00;;;24.46;50.84
71126;BME280;58785;55.566;38.058;2022-08-19T07:01:19;100988.94;;;24.50;50.81
71126;BME280;58785;55.566;38.058;2022-08-19T07:03:44;100988.94;;;24.50;50.78
71126;BME280;58785;55.566;38.058;2022-08-19T07:06:16;101006.72;;;24.59;50.62
71126;BME280;58785;55.566;38.058;2022-08-19T07:08:47;101008.16;;;24.68;50.67
71126;BME280;58785;55.566;38.058;2022-08-19T07:11:15;100997.59;;;24.78;50.34
71126;BME280;58785;55.566;38.058;2022-08-19T07:13:43;101004.38;;;25.01;50.06
71126;BME280;58785;55.566;38.058;2022-08-19T07:16:13;100998.00;;;25.13;49.45
71126;BME280;58785;55.566;38.058;2022-08-19T07:18:40;101005.88;;;25.28;49.35
71126;BME280;58785;55.566;38.058;2022-08-19T07:21:10;101002.66;;;25.38;48.75
71126;BME280;58785;55.566;38.058;2022-08-19T07:23:36;100993.72;;;25.49;48.40
71126;BME280;58785;55.566;38.058;2022-08-19T07:26:23;100989.44;;;25.60;48.35
71126;BME280;58785;55.566;38.058;2022-08-19T07:28:49;100996.25;;;25.75;48.51
71126;BME280;58785;55.566;38.058;2022-08-19T07:31:18;100991.78;;;25.99;47.99
71126;BME280;58785;55.566;38.058;2022-08-19T07:33:46;100994.28;;;26.19;47.97
71126;BME280;58785;55.566;38.058;2022-08-19T07:36:16;100998.22;;;26.42;47.37
71126;BME280;58785;55.566;38.058;2022-08-19T07:38:44;100993.81;;;26.59;46.49
71126;BME280;58785;55.566;38.058;2022-08-19T07:41:19;101002.22;;;26.76;46.36
71126;BME280;58785;55.566;38.058;2022-08-19T07:43:45;100992.56;;;26.85;45.99
71126;BME280;58785;55.566;38.058;2022-08-19T07:46:12;101004.56;;;26.72;45.72
71126;BME280;58785;55.566;38.058;2022-08-19T07:48:40;101010.81;;;26.61;46.08
71126;BME280;58785;55.566;38.058;2022-08-19T07:51:07;101007.53;;;26.71;45.50
71126;BME280;58785;55.566;38.058;2022-08-19T07:53:34;100998.88;;;26.85;45.75
71126;BME280;58785;55.566;38.058;2022-08-19T07:56:00;100992.75;;;27.02;45.51
71126;BME280;58785;55.566;38.058;2022-08-19T07:58:32;101000.00;;;27.26;44.71
71126;BME280;58785;55.566;38.058;2022-08-19T08:00:59;100998.94;;;27.39;44.61
71126;BME280;58785;55.566;38.058;2022-08-19T08:03:25;100991.44;;;27.46;44.21
71126;BME280;58785;55.566;38.058;2022-08-19T08:06:13;101000.50;;;27.58;43.66
71126;BME280;58785;55.566;38.058;2022-08-19T08:08:58;101000.59;;;27.63;43.55
71126;BME280;58785;55.566;38.058;2022-08-19T08:11:47;101008.50;;;27.71;43.51
71126;BME280;58785;55.566;38.058;2022-08-19T08:14:32;100988.94;;;27.56;43.40
71126;BME280;58785;55.566;38.058;2022-08-19T08:16:59;100998.59;;;27.59;43.55
71126;BME280;58785;55.566;38.058;2022-08-19T08:19:26;101010.38;;;27.47;43.21
71126;BME280;58785;55.566;38.058;2022-08-19T08:21:57;101010.13;;;27.37;43.81
71126;BME280;58785;55.566;38.058;2022-08-19T08:24:27;101008.72;;;27.46;43.64
71126;BME280;58785;55.566;38.058;2022-08-19T08:26:53;101015.47;;;27.44;43.81
71126;BME280;58785;55.566;38.058;2022-08-19T08:29:19;101011.41;;;27.35;43.68
71126;BME280;58785;55.566;38.058;2022-08-19T08:31:45;101018.94;;;27.28;43.97
71126;BME280;58785;55.566;38.058;2022-08-19T08:34:13;101015.56;;;27.26;43.50
71126;BME280;58785;55.566;38.058;2022-08-19T08:36:42;101017.59;;;27.18;44.03
71126;BME280;58785;55.566;38.058;2022-08-19T08:39:19;101024.41;;;27.28;44.12
71126;BME280;58785;55.566;38.058;2022-08-19T08:44:43;101019.88;;;27.33;43.57
71126;BME280;58785;55.566;38.058;2022-08-19T08:47:17;101015.59;;;27.37;43.67
71126;BME280;58785;55.566;38.058;2022-08-19T08:52:29;101017.25;;;27.27;43.34
71126;BME280;58785;55.566;38.058;2022-08-19T08:54:58;101007.22;;;27.20;43.58
71126;BME280;58785;55.566;38.058;2022-08-19T09:00:29;101020.31;;;27.07;42.79
71126;BME280;58785;55.566;38.058;2022-08-19T09:02:57;101016.16;;;27.16;42.94
71126;BME280;58785;55.566;38.058;2022-08-19T09:05:25;101025.47;;;27.27;42.58
71126;BME280;58785;55.566;38.058;2022-08-19T09:08:03;101018.69;;;27.29;41.12
71126;BME280;58785;55.566;38.058;2022-08-19T09:10:43;101032.69;;;27.09;40.44
71126;BME280;58785;55.566;38.058;2022-08-19T09:15:48;101024.78;;;27.01;40.24
71126;BME280;58785;55.566;38.058;2022-08-19T09:18:17;101023.09;;;27.00;40.17
71126;BME280;58785;55.566;38.058;2022-08-19T09:20:44;101017.13;;;26.91;40.57
71126;BME280;58785;55.566;38.058;2022-08-19T09:23:12;101011.25;;;27.06;40.60
71126;BME280;58785;55.566;38.058;2022-08-19T09:25:37;101020.91;;;27.09;40.97
71126;BME280;58785;55.566;38.058;2022-08-19T09:28:05;101024.25;;;27.23;40.40
71126;BME280;58785;55.566;38.058;2022-08-19T09:30:39;101032.63;;;27.28;39.41
71126;BME280;58785;55.566;38.058;2022-08-19T09:33:05;101025.22;;;27.16;38.67
71126;BME280;58785;55.566;38.058;2022-08-19T09:35:32;101027.81;;;27.11;38.87
71126;BME280;58785;55.566;38.058;2022-08-19T09:37:58;101024.59;;;27.14;39.08
71126;BME280;58785;55.566;38.058;2022-08-19T09:40:26;101033.81;;;27.32;39.42
71126;BME280;58785;55.566;38.058;2022-08-19T09:42:52;101035.72;;;27.43;39.40
71126;BME280;58785;55.566;38.058;2022-08-19T09:45:20;101035.28;;;27.58;38.93
71126;BME280;58785;55.566;38.058;2022-08-19T09:47:47;101038.84;;;27.58;38.53
71126;BME280;58785;55.566;38.058;2022-08-19T09:50:14;101031.34;;;27.54;37.55
71126;BME280;58785;55.566;38.058;2022-08-19T09:52:39;101040.03;;;27.50;36.86
71126;BME280;58785;55.566;38.058;2022-08-19T09:55:09;101044.69;;;27.50;37.07
71126;BME280;58785;55.566;38.058;2022-08-19T09:57:36;101046.34;;;27.51;36.99
71126;BME280;58785;55.566;38.058;2022-08-19T10:00:08;101051.81;;;27.51;36.39
71126;BME280;58785;55.566;38.058;2022-08-19T10:02:34;101036.94;;;27.47;36.14
71126;BME280;58785;55.566;38.058;2022-08-19T10:05:01;101034.91;;;27.42;36.03
71126;BME280;58785;55.566;38.058;2022-08-19T10:07:45;101048.25;;;27.39;35.45
71126;BME280;58785;55.566;38.058;2022-08-19T10:10:11;101048.34;;;27.44;35.70
71126;BME280;58785;55.566;38.058;2022-08-19T10:12:37;101057.31;;;27.51;36.17
71126;BME280;58785;55.566;38.058;2022-08-19T10:15:04;101054.78;;;27.38;35.50
71126;BME280;58785;55.566;38.058;2022-08-19T10:17:30;101048.34;;;27.32;35.95
71126;BME280;58785;55.566;38.058;2022-08-19T10:19:58;101045.47;;;27.27;35.89
71126;BME280;58785;55.566;38.058;2022-08-19T10:22:24;101044.97;;;27.18;36.91
71126;BME280;58785;55.566;38.058;2022-08-19T10:24:49;101066.09;;;27.30;36.80
71126;BME280;58785;55.566;38.058;2022-08-19T10:27:15;101052.03;;;27.26;37.20
71126;BME280;58785;55.566;38.058;2022-08-19T10:29:41;101038.19;;;27.21;37.69
71126;BME280;58785;55.566;38.058;2022-08-19T10:32:08;101060.25;;;27.26;37.52
71126;BME280;58785;55.566;38.058;2022-08-19T10:34:36;101074.03;;;27.19;38.12
71126;BME280;58785;55.566;38.058;2022-08-19T10:37:05;101066.63;;;27.08;38.24
71126;BME280;58785;55.566;38.058;2022-08-19T10:39:36;101064.47;;;27.10;38.23
71126;BME280;58785;55.566;38.058;2022-08-19T10:42:06;101066.97;;;27.12;38.36
71126;BME280;58785;55.566;38.058;2022-08-19T10:44:33;101068.66;;;27.13;38.01
71126;BME280;58785;55.566;38.058;2022-08-19T10:47:02;101062.22;;;27.07;37.55
71126;BME280;58785;55.566;38.058;2022-08-19T10:49:28;101054.34;;;27.11;37.74
71126;BME280;58785;55.566;38.058;2022-08-19T10:51:55;101052.97;;;27.20;37.41
71126;BME280;58785;55.566;38.058;2022-08-19T10:54:39;101053.06;;;27.25;37.54
71126;BME280;58785;55.566;38.058;2022-08-19T10:57:26;101066.31;;;27.28;37.32
71126;BME280;58785;55.566;38.058;2022-08-19T10:59:55;101059.63;;;27.24;37.02
71126;BME280;58785;55.566;38.058;2022-08-19T11:02:22;101055.09;;;27.18;36.96
71126;BME280;58785;55.566;38.058;2022-08-19T11:04:48;101058.75;;;27.12;37.07
71126;BME280;58785;55.566;38.058;2022-08-19T11:07:15;101054.69;;;27.03;37.13
71126;BME280;58785;55.566;38.058;2022-08-19T11:09:42;101057.88;;;27.00;37.49
71126;BME280;58785;55.566;38.058;2022-08-19T11:12:09;101066.56;;;26.97;37.08
71126;BME280;58785;55.566;38.058;2022-08-19T11:14:36;101062.00;;;26.90;37.36
71126;BME280;58785;55.566;38.058;2022-08-19T11:17:03;101055.44;;;26.91;37.30
71126;BME280;58785;55.566;38.058;2022-08-19T11:19:30;101055.44;;;26.91;37.17
71126;BME280;58785;55.566;38.058;2022-08-19T11:21:55;101058.25;;;27.03;37.34
71126;BME280;58785;55.566;38.058;2022-08-19T11:24:23;101050.91;;;27.15;37.99
71126;BME280;58785;55.566;38.058;2022-08-19T11:26:52;101061.75;;;27.10;37.54
71126;BME280;58785;55.566;38.058;2022-08-19T11:29:22;101053.63;;;27.04;37.84
71126;BME280;58785;55.566;38.058;2022-08-19T11:31:53;101054.44;;;27.04;37.99
71126;BME280;58785;55.566;38.058;2022-08-19T11:34:25;101056.75;;;27.07;38.13
71126;BME280;58785;55.566;38.058;2022-08-19T11:36:53;101057.34;;;27.09;37.82
71126;BME280;58785;55.566;38.058;2022-08-19T11:39:23;101055.19;;;27.11;37.69
71126;BME280;58785;55.566;38.058;2022-08-19T11:41:50;101039.00;;;27.10;38.08
71126;BME280;58785;55.566;38.058;2022-08-19T11:44:17;101044.00;;;27.13;38.59
71126;BME280;58785;55.566;38.058;2022-08-19T11:46:44;101033.88;;;27.13;38.25
71126;BME280;58785;55.566;38.058;2022-08-19T11:49:18;101057.94;;;27.11;38.05
71126;BME280;58785;55.566;38.058;2022-08-19T11:51:45;101027.81;;;27.11;38.45
71126;BME280;58785;55.566;38.058;2022-08-19T11:54:13;101038.19;;;27.21;38.45
71126;BME280;58785;55.566;38.058;2022-08-19T11:56:40;101037.84;;;27.29;39.03
71126;BME280;58785;55.566;38.058;2022-08-19T11:59:06;101031.16;;;27.25;38.52
71126;BME280;58785;55.566;38.058;2022-08-19T12:01:33;101027.72;;;27.18;39.02
71126;BME280;58785;55.566;38.058;2022-08-19T12:03:59;101018.53;;;27.12;38.51
71126;BME280;58785;55.566;38.058;2022-08-19T12:06:27;101019.75;;;27.16;38.30
71126;BME280;58785;55.566;38.058;2022-08-19T12:08:56;101037.34;;;27.20;38.32
71126;BME280;58785;55.566;38.058;2022-08-19T12:11:23;101036.53;;;27.20;38.63
71126;BME280;58785;55.566;38.058;2022-08-19T12:13:49;101048.56;;;27.19;38.21
71126;BME280;58785;55.566;38.058;2022-08-19T12:16:26;101041.59;;;27.05;38.91
71126;BME280;58785;55.566;38.058;2022-08-19T12:18:53;101032.78;;;27.03;38.52
71126;BME280;58785;55.566;38.058;2022-08-19T12:21:23;101040.94;;;26.91;38.71
71126;BME280;58785;55.566;38.058;2022-08-19T12:23:54;101040.44;;;26.94;39.28
71126;BME280;58785;55.566;38.058;2022-08-19T12:26:21;101038.78;;;26.93;38.62
71126;BME280;58785;55.566;38.058;2022-08-19T12:28:47;101022.59;;;26.91;38.74
71126;BME280;58785;55.566;38.058;2022-08-19T12:31:14;101036.75;;;26.88;38.84
71126;BME280;58785;55.566;38.058;2022-08-19T12:33:41;101035.09;;;26.87;38.76
71126;BME280;58785;55.566;38.058;2022-08-19T12:36:10;101036.03;;;26.93;39.43
71126;BME280;58785;55.566;38.058;2022-08-19T12:38:37;101036.19;;;26.98;39.07
71126;BME280;58785;55.566;38.058;2022-08-19T12:41:04;101042.81;;;27.09;39.37
71126;BME280;58785;55.566;38.058;2022-08-19T12:43:36;101041.03;;;27.14;38.97
71126;BME280;58785;55.566;38.058;2022-08-19T12:46:04;101034.44;;;27.04;38.90
71126;BME280;58785;55.566;38.058;2022-08-19T12:48:31;101035.59;;;26.96;39.00
71126;BME280;58785;55.566;38.058;2022-08-19T12:50:56;101038.53;;;26.94;39.43
71126;BME280;58785;55.566;38.058;2022-08-19T12:53:22;101036.19;;;26.98;40.22
71126;BME280;58785;55.566;38.058;2022-08-19T12:55:55;101037.44;;;26.84;39.33
71126;BME280;58785;55.566;38.058;2022-08-19T12:58:21;101048.25;;;26.79;39.60